Time;durP1;ratioP1;P1;durP2;ratioP2;P2;SDS_P1;SDS_P2;PMS_P1;PMS_P2;Temp;Humidity;BMP_temperature;BMP_pressure;BME280_temperature;BME280_humidity;BME280_pressure;Samples;Min_cycle;Max_cycle;Signal;HPM_P1;HPM_P2
2022/11/22 00:01:21;;;;;;;10.23;5.97;;;3.10;99.90;;;;;;7599486;19;20067;-73
2022/11/22 00:03:53;;;;;;;9.68;5.55;;;3.10;99.90;;;;;;7620089;19;20022;-73
2022/11/22 00:06:25;;;;;;;8.90;5.25;;;3.10;99.90;;;;;;7618931;19;20015;-72
2022/11/22 00:08:57;;;;;;;9.18;5.28;;;3.10;99.90;;;;;;7615948;19;20058;-73
2022/11/22 00:11:29;;;;;;;9.30;5.28;;;3.20;99.90;;;;;;7617969;19;20030;-73
2022/11/22 00:14:01;;;;;;;8.27;5.50;;;3.20;99.90;;;;;;7609921;19;20014;-73
2022/11/22 00:16:34;;;;;;;9.90;5.75;;;3.20;99.90;;;;;;7615224;19;20566;-73
2022/11/22 00:19:07;;;;;;;9.27;5.90;;;3.10;99.90;;;;;;7616652;19;20026;-73
2022/11/22 00:21:39;;;;;;;9.80;6.03;;;3.10;99.90;;;;;;7617935;19;20686;-73
2022/11/22 00:24:12;;;;;;;10.50;5.97;;;3.10;99.90;;;;;;7608795;19;20798;-73
2022/11/22 00:26:44;;;;;;;11.75;5.38;;;3.10;99.90;;;;;;7614753;19;20064;-73
2022/11/22 00:29:16;;;;;;;8.82;5.60;;;3.20;99.90;;;;;;7611664;19;20021;-73
2022/11/22 00:31:49;;;;;;;9.57;5.97;;;3.20;99.90;;;;;;7616749;19;20581;-72
2022/11/22 00:34:21;;;;;;;10.27;5.60;;;3.20;99.90;;;;;;7616274;19;20579;-73
2022/11/22 00:36:53;;;;;;;9.43;6.00;;;3.20;99.90;;;;;;7612558;19;20029;-72
2022/11/22 00:39:25;;;;;;;7.65;5.30;;;3.10;99.90;;;;;;7617284;19;20027;-73
2022/11/22 00:41:58;;;;;;;11.20;6.10;;;3.20;99.90;;;;;;7611175;19;20051;-72
2022/11/22 00:44:30;;;;;;;8.43;5.63;;;3.20;99.90;;;;;;7616820;19;20031;-73
2022/11/22 00:47:03;;;;;;;8.88;5.70;;;3.30;99.90;;;;;;7600517;19;20609;-72
2022/11/22 00:49:35;;;;;;;8.63;5.97;;;3.40;99.90;;;;;;7609727;19;20796;-73
2022/11/22 00:52:07;;;;;;;9.70;6.00;;;3.40;99.90;;;;;;7618822;19;20687;-73
2022/11/22 00:54:39;;;;;;;7.63;5.57;;;3.30;99.90;;;;;;7615666;19;20039;-72
2022/11/22 00:57:11;;;;;;;8.25;5.63;;;3.40;99.90;;;;;;7611378;19;20023;-73
2022/11/22 00:59:43;;;;;;;9.55;6.13;;;3.30;99.90;;;;;;7613413;19;20371;-73
2022/11/22 01:02:15;;;;;;;9.25;5.72;;;3.30;99.90;;;;;;7615727;19;20026;-73
2022/11/22 01:04:47;;;;;;;9.07;5.68;;;3.30;99.90;;;;;;7615924;19;20939;-73
2022/11/22 01:07:19;;;;;;;11.90;5.97;;;3.30;99.90;;;;;;7611967;19;20030;-73
2022/11/22 01:09:51;;;;;;;6.90;4.57;;;3.30;99.90;;;;;;7600504;19;20018;-72
2022/11/22 01:12:24;;;;;;;10.10;5.35;;;3.40;99.90;;;;;;7618472;19;20018;-74
2022/11/22 01:14:56;;;;;;;7.70;5.40;;;3.40;99.90;;;;;;7607193;19;20011;-72
2022/11/22 01:17:29;;;;;;;8.40;5.68;;;3.40;99.90;;;;;;7610339;19;20019;-73
2022/11/22 01:20:02;;;;;;;9.98;5.65;;;3.40;99.90;;;;;;7608835;19;20032;-73
2022/11/22 01:22:34;;;;;;;9.33;5.43;;;3.50;99.90;;;;;;7613906;19;20747;-73
2022/11/22 01:25:07;;;;;;;7.10;4.82;;;3.50;99.90;;;;;;7611432;19;20098;-73
2022/11/22 01:27:39;;;;;;;7.60;5.15;;;3.50;99.90;;;;;;7612705;19;20025;-73
2022/11/22 01:30:11;;;;;;;15.52;5.78;;;3.60;99.90;;;;;;7605182;19;20553;-73
2022/11/22 01:32:43;;;;;;;9.02;5.35;;;3.60;99.90;;;;;;7620430;19;20024;-73
2022/11/22 01:35:15;;;;;;;7.07;5.25;;;3.70;99.90;;;;;;7613928;19;20017;-73
2022/11/22 01:37:47;;;;;;;8.60;5.47;;;3.70;99.90;;;;;;7608655;19;20019;-73
2022/11/22 01:40:20;;;;;;;7.32;5.20;;;3.70;99.90;;;;;;7605312;19;20015;-73
2022/11/22 01:42:55;;;;;;;7.57;4.50;;;3.60;99.90;;;;;;7608768;19;20021;-72
2022/11/22 01:45:30;;;;;;;5.65;4.03;;;3.60;99.90;;;;;;7613833;19;20018;-73
2022/11/22 01:48:13;;;;;;;7.00;3.90;;;3.70;99.90;;;;;;7612923;19;20018;-72
2022/11/22 01:50:49;;;;;;;5.85;3.92;;;3.70;99.90;;;;;;7621400;19;20019;-72
2022/11/22 01:53:34;;;;;;;6.38;3.78;;;3.80;99.90;;;;;;7609786;19;20015;-73
2022/11/22 01:56:11;;;;;;;9.77;4.15;;;3.90;99.90;;;;;;7613065;19;20025;-72
2022/11/22 01:58:48;;;;;;;8.13;3.90;;;3.90;99.90;;;;;;7618092;19;20874;-72
2022/11/22 02:01:20;;;;;;;6.57;4.25;;;3.90;99.90;;;;;;7617713;19;20016;-73
2022/11/22 02:03:56;;;;;;;5.00;3.75;;;3.90;99.90;;;;;;7611839;19;20164;-71
2022/11/22 02:06:40;;;;;;;5.18;3.38;;;4.00;99.90;;;;;;7620124;19;20014;-72
2022/11/22 02:09:13;;;;;;;5.60;3.20;;;4.00;99.90;;;;;;7618255;19;20024;-72
2022/11/22 02:11:49;;;;;;;5.78;3.22;;;4.00;99.90;;;;;;7617809;19;20049;-73
2022/11/22 02:14:25;;;;;;;9.85;3.60;;;4.00;99.90;;;;;;7607524;19;20022;-73
2022/11/22 02:16:57;;;;;;;7.07;2.78;;;4.10;99.90;;;;;;7613780;19;20370;-73
2022/11/22 02:19:41;;;;;;;6.28;2.97;;;4.20;99.90;;;;;;7613603;19;21084;-73
2022/11/22 02:22:39;;;;;;;4.45;2.72;;;4.20;99.90;;;;;;7619142;19;20355;-73
2022/11/22 02:25:20;;;;;;;8.15;3.47;;;4.20;99.90;;;;;;7608650;19;20039;-73
2022/11/22 02:27:52;;;;;;;4.68;3.47;;;4.30;99.90;;;;;;7605452;19;20137;-72
2022/11/22 02:30:24;;;;;;;4.35;2.55;;;4.30;99.90;;;;;;7609020;19;20018;-72
2022/11/22 02:32:57;;;;;;;5.40;3.03;;;4.30;99.90;;;;;;7617745;19;20035;-72
2022/11/22 02:35:29;;;;;;;4.53;2.88;;;4.30;99.90;;;;;;7608129;19;20025;-73
2022/11/22 02:38:14;;;;;;;4.13;2.60;;;4.30;99.90;;;;;;7611193;19;20022;-73
2022/11/22 02:41:01;;;;;;;4.97;3.40;;;4.30;99.90;;;;;;7607587;19;20277;-72
2022/11/22 02:43:37;;;;;;;4.43;2.35;;;4.30;99.90;;;;;;7608831;19;20150;-72
2022/11/22 02:46:12;;;;;;;5.50;2.47;;;4.40;99.90;;;;;;7606083;19;20018;-72
2022/11/22 02:48:44;;;;;;;2.85;2.20;;;4.50;99.90;;;;;;7611021;19;20570;-73
2022/11/22 02:51:18;;;;;;;5.65;2.22;;;4.50;99.90;;;;;;7616659;19;20500;-73
2022/11/22 02:53:56;;;;;;;2.63;1.90;;;4.50;99.90;;;;;;7605736;19;20015;-74
2022/11/22 02:56:28;;;;;;;3.88;2.60;;;4.50;99.90;;;;;;7607396;19;20006;-73
2022/11/22 02:59:00;;;;;;;4.15;2.42;;;4.60;99.90;;;;;;7613739;19;20019;-73
2022/11/22 03:01:32;;;;;;;3.92;2.42;;;4.60;99.90;;;;;;7599835;19;20019;-74
2022/11/22 03:04:05;;;;;;;4.53;2.58;;;4.70;99.90;;;;;;7601936;19;20019;-74
2022/11/22 03:06:37;;;;;;;4.80;2.15;;;4.70;99.90;;;;;;7616110;19;20022;-74
2022/11/22 03:09:09;;;;;;;4.53;2.13;;;4.70;99.90;;;;;;7617802;19;20126;-75
2022/11/22 03:11:41;;;;;;;4.10;1.98;;;4.70;99.90;;;;;;7618393;19;20019;-74
2022/11/22 03:14:14;;;;;;;4.82;2.70;;;4.80;99.90;;;;;;7619256;19;21065;-73
2022/11/22 03:16:47;;;;;;;6.55;2.22;;;4.70;99.90;;;;;;7610902;19;20865;-73
2022/11/22 03:19:19;;;;;;;3.08;2.10;;;4.70;99.90;;;;;;7609068;19;20019;-73
2022/11/22 03:21:51;;;;;;;4.07;2.13;;;4.80;99.90;;;;;;7613095;19;20094;-74
2022/11/22 03:24:23;;;;;;;6.40;2.40;;;4.80;99.90;;;;;;7608579;19;20023;-73
2022/11/22 03:26:55;;;;;;;6.75;2.90;;;4.80;99.90;;;;;;7617926;19;20367;-73
2022/11/22 03:29:27;;;;;;;4.05;2.25;;;4.80;99.90;;;;;;7595089;19;20070;-74
2022/11/22 03:32:00;;;;;;;4.85;2.45;;;4.80;99.90;;;;;;7606547;19;20022;-73
2022/11/22 03:34:32;;;;;;;5.82;2.50;;;4.90;99.90;;;;;;7608727;19;20017;-79
2022/11/22 03:37:07;;;;;;;4.28;2.00;;;4.90;99.90;;;;;;7601905;19;20150;-81
2022/11/22 03:39:39;;;;;;;3.80;2.50;;;4.90;99.90;;;;;;7605801;19;20785;-80
2022/11/22 03:42:11;;;;;;;3.67;2.25;;;4.80;99.90;;;;;;7612919;19;20019;-81
2022/11/22 03:44:50;;;;;;;3.45;2.17;;;4.80;99.90;;;;;;7607223;19;20499;-81
2022/11/22 03:47:22;;;;;;;3.75;2.05;;;4.80;99.90;;;;;;7608442;19;20015;-79
2022/11/22 03:49:55;;;;;;;3.60;2.42;;;4.90;99.90;;;;;;7613343;19;20062;-81
2022/11/22 03:52:28;;;;;;;3.28;2.25;;;4.80;99.90;;;;;;7609297;19;20022;-79
2022/11/22 03:55:03;;;;;;;2.58;2.00;;;4.90;99.90;;;;;;7613779;19;20014;-79
2022/11/22 03:57:35;;;;;;;4.88;2.55;;;4.90;99.90;;;;;;7631286;19;20010;-79
2022/11/22 04:00:08;;;;;;;4.85;2.63;;;4.90;99.90;;;;;;7604972;19;20014;-81
2022/11/22 04:02:43;;;;;;;4.53;2.05;;;4.90;99.90;;;;;;7600363;19;21274;-80
2022/11/22 04:05:15;;;;;;;4.15;2.47;;;4.90;99.90;;;;;;7608435;19;20018;-79
2022/11/22 04:07:47;;;;;;;5.03;2.83;;;4.90;99.90;;;;;;7604747;19;20018;-83
2022/11/22 04:10:19;;;;;;;5.47;2.20;;;4.90;99.90;;;;;;7609469;19;20010;-80
2022/11/22 04:12:57;;;;;;;6.03;2.67;;;4.90;99.90;;;;;;7612471;19;20077;-80
2022/11/22 04:15:29;;;;;;;8.88;2.53;;;4.90;99.90;;;;;;7609318;19;20022;-78
2022/11/22 04:18:01;;;;;;;3.03;2.17;;;4.80;99.90;;;;;;7605597;19;20019;-79
2022/11/22 04:23:25;;;;;;;3.53;2.38;;;4.80;99.90;;;;;;7596644;19;21628;-79
2022/11/22 04:26:04;;;;;;;6.55;2.60;;;4.80;99.90;;;;;;7598657;19;20015;-78
2022/11/22 04:28:39;;;;;;;7.38;2.90;;;4.80;99.90;;;;;;7598519;19;20018;-79
2022/11/22 04:34:30;;;;;;;5.22;2.70;;;4.80;99.90;;;;;;7604624;19;20090;-79
2022/11/22 04:37:07;;;;;;;4.45;2.83;;;4.90;99.90;;;;;;7610252;19;20014;-79
2022/11/22 04:39:39;;;;;;;5.40;2.95;;;4.90;99.90;;;;;;7597626;19;20027;-79
2022/11/22 04:45:02;;;;;;;5.28;3.13;;;5.00;99.90;;;;;;7582247;19;20015;-79
2022/11/22 04:53:19;;;;;;;53.38;22.27;;;5.00;99.90;;;;;;7592752;19;20032;-80
2022/11/22 04:55:51;;;;;;;40.67;18.25;;;5.00;99.90;;;;;;7595562;19;20030;-80
2022/11/22 04:58:23;;;;;;;31.52;11.80;;;5.00;99.90;;;;;;7595838;19;20404;-79
2022/11/22 05:00:55;;;;;;;24.38;10.63;;;5.00;99.90;;;;;;7592008;19;20231;-79
2022/11/22 05:03:28;;;;;;;39.40;18.30;;;5.00;99.90;;;;;;7601931;19;20108;-80
2022/11/22 05:06:01;;;;;;;22.10;10.98;;;5.10;99.90;;;;;;7590545;19;20018;-79
2022/11/22 05:08:33;;;;;;;;;;;5.20;99.90;;;;;;7584668;19;20018;-78
2022/11/22 05:11:05;;;;;;;17.10;7.07;;;5.20;99.90;;;;;;7602380;19;19926;-80
2022/11/22 05:13:39;;;;;;;18.77;9.32;;;5.20;99.90;;;;;;7601780;19;20257;-80
2022/11/22 05:16:13;;;;;;;10.75;5.78;;;5.20;99.90;;;;;;7615690;19;20014;-81
2022/11/22 05:18:57;;;;;;;8.68;5.28;;;5.30;99.90;;;;;;7605791;19;20022;-79
2022/11/22 05:21:32;;;;;;;7.63;4.32;;;5.40;99.90;;;;;;7590286;19;20089;-79
2022/11/22 05:24:04;;;;;;;11.23;4.45;;;5.40;99.90;;;;;;7597763;19;20052;-77
2022/11/22 05:26:36;;;;;;;4.80;3.35;;;5.50;99.90;;;;;;7610398;19;20038;-79
2022/11/22 05:29:09;;;;;;;6.03;3.25;;;5.50;99.90;;;;;;7575394;19;20010;-78
2022/11/22 05:31:42;;;;;;;;;;;5.50;99.90;;;;;;7569660;19;20010;-79
2022/11/22 05:34:20;;;;;;;3.70;2.33;;;5.50;99.90;;;;;;7570963;19;20467;-79
2022/11/22 05:36:52;;;;;;;14.02;5.90;;;5.60;99.90;;;;;;7561180;19;22483;-79
2022/11/22 05:39:24;;;;;;;5.10;2.85;;;5.60;99.90;;;;;;7581618;19;20841;-78
2022/11/22 05:41:56;;;;;;;6.18;3.03;;;5.60;99.90;;;;;;7556165;19;20029;-79
2022/11/22 05:44:28;;;;;;;18.33;6.50;;;5.70;99.90;;;;;;7587225;19;20572;-80
2022/11/22 05:47:00;;;;;;;8.85;3.97;;;5.60;99.90;;;;;;7595481;19;20037;-80
2022/11/22 05:49:32;;;;;;;14.25;5.90;;;5.70;99.90;;;;;;7566313;19;20007;-80
2022/11/22 05:52:04;;;;;;;13.98;4.95;;;5.70;99.90;;;;;;7565404;19;20058;-80
2022/11/22 05:54:36;;;;;;;10.55;5.22;;;5.70;99.90;;;;;;7583963;19;20477;-79
2022/11/22 05:57:08;;;;;;;8.60;3.70;;;5.70;99.90;;;;;;7582377;19;20521;-78
2022/11/22 05:59:41;;;;;;;2.72;1.75;;;5.70;99.90;;;;;;7578561;19;20022;-78
2022/11/22 06:02:15;;;;;;;7.10;2.72;;;5.70;99.90;;;;;;7596356;19;20017;-79
2022/11/22 06:04:47;;;;;;;6.80;2.67;;;5.80;99.90;;;;;;7599244;19;20014;-75
2022/11/22 06:07:19;;;;;;;10.60;3.30;;;5.80;99.90;;;;;;7577078;19;20029;-76
2022/11/22 06:09:51;;;;;;;8.00;3.17;;;5.80;99.90;;;;;;7574716;19;20114;-77
2022/11/22 06:12:24;;;;;;;6.35;2.55;;;5.80;99.90;;;;;;7552892;19;20018;-75
2022/11/22 06:14:56;;;;;;;7.25;3.50;;;5.80;99.90;;;;;;7565828;19;20065;-76
2022/11/22 06:17:28;;;;;;;5.32;2.85;;;5.80;99.90;;;;;;7577210;19;20018;-76
2022/11/22 06:20:00;;;;;;;7.47;3.03;;;5.80;99.90;;;;;;7571506;19;20035;-75
2022/11/22 06:22:37;;;;;;;6.97;3.65;;;5.90;99.90;;;;;;7553311;19;20026;-76
2022/11/22 06:25:09;;;;;;;7.35;3.42;;;5.80;99.90;;;;;;7576122;19;20015;-74
2022/11/22 06:27:41;;;;;;;8.85;3.40;;;5.80;99.90;;;;;;7567127;19;20022;-75
2022/11/22 06:30:14;;;;;;;6.57;3.55;;;5.80;99.90;;;;;;7521011;19;21092;-74
2022/11/22 06:32:46;;;;;;;8.60;3.90;;;5.90;99.90;;;;;;7525024;19;20721;-75
2022/11/22 06:35:18;;;;;;;9.55;3.58;;;5.90;99.90;;;;;;7525401;19;21700;-75
2022/11/22 06:37:50;;;;;;;6.38;2.67;;;5.90;99.90;;;;;;7543088;19;21219;-77
2022/11/22 06:40:30;;;;;;;9.05;3.15;;;5.90;99.90;;;;;;7555960;19;20953;-76
2022/11/22 06:43:02;;;;;;;8.13;2.67;;;5.90;99.90;;;;;;7568112;19;20021;-77
2022/11/22 06:45:33;;;;;;;6.50;3.40;;;5.90;99.90;;;;;;7558923;19;20006;-77
2022/11/22 06:48:05;;;;;;;6.47;4.00;;;6.00;99.90;;;;;;7582871;19;20115;-77
2022/11/22 06:50:37;;;;;;;8.93;4.70;;;6.00;99.90;;;;;;7582523;19;20120;-77
2022/11/22 06:53:10;;;;;;;10.90;6.18;;;6.00;99.90;;;;;;7598600;19;20015;-76
2022/11/22 06:56:04;;;;;;;11.05;6.10;;;6.00;99.90;;;;;;7601185;19;20052;-77
2022/11/22 06:58:37;;;;;;;10.43;5.82;;;6.00;99.90;;;;;;7577605;19;20982;-77
2022/11/22 07:01:11;;;;;;;9.93;4.93;;;6.00;99.90;;;;;;7614989;19;20041;-77
2022/11/22 07:03:44;;;;;;;10.48;4.65;;;6.00;99.90;;;;;;7617051;19;20121;-78
2022/11/22 07:06:18;;;;;;;10.70;5.00;;;6.00;99.90;;;;;;7623400;19;20371;-77
2022/11/22 07:08:50;;;;;;;;;;;5.90;99.90;;;;;;7619174;19;20021;-77
2022/11/22 07:11:24;;;;;;;9.10;4.15;;;5.90;99.90;;;;;;7617933;19;20881;-77
2022/11/22 07:13:58;;;;;;;10.27;4.43;;;5.90;99.90;;;;;;7559888;19;20709;-75
2022/11/22 07:16:38;;;;;;;9.75;3.58;;;5.90;99.90;;;;;;7560760;19;20010;-77
2022/11/22 07:19:10;;;;;;;5.45;3.67;;;6.00;99.90;;;;;;7574925;19;20039;-76
2022/11/22 07:21:43;;;;;;;11.68;4.38;;;6.00;99.90;;;;;;7610635;19;20362;-77
2022/11/22 07:24:15;;;;;;;6.72;4.15;;;6.00;99.90;;;;;;7619930;19;20019;-77
2022/11/22 07:26:46;;;;;;;7.93;5.00;;;5.90;99.90;;;;;;7617209;19;20031;-77
2022/11/22 07:29:19;;;;;;;10.80;4.05;;;6.00;99.90;;;;;;7615389;19;20050;-76
2022/11/22 07:31:51;;;;;;;9.40;4.20;;;6.00;99.90;;;;;;7617030;19;20534;-77
2022/11/22 07:34:23;;;;;;;8.48;4.30;;;5.90;99.90;;;;;;7611868;19;20053;-75
2022/11/22 07:36:55;;;;;;;10.35;4.30;;;5.90;99.90;;;;;;7608699;19;20010;-77
2022/11/22 07:39:33;;;;;;;14.88;5.43;;;5.90;99.90;;;;;;7616941;19;20025;-77
2022/11/22 07:42:05;;;;;;;11.02;3.53;;;5.90;99.90;;;;;;7621786;19;20018;-76
2022/11/22 07:44:37;;;;;;;19.42;6.60;;;5.90;99.90;;;;;;7568056;19;20015;-78
2022/11/22 07:47:09;;;;;;;13.65;5.10;;;5.90;99.90;;;;;;7607717;19;20018;-77
2022/11/22 07:49:41;;;;;;;31.45;10.15;;;5.90;99.90;;;;;;7579971;19;20018;-76
2022/11/22 07:52:14;;;;;;;28.92;10.27;;;5.90;99.90;;;;;;7561811;19;20097;-77
2022/11/22 07:54:46;;;;;;;31.50;8.30;;;5.80;99.90;;;;;;7573464;19;20022;-77
2022/11/22 07:57:18;;;;;;;38.47;12.38;;;5.80;99.90;;;;;;7582455;19;20044;-76
2022/11/22 07:59:50;;;;;;;44.67;13.10;;;5.80;99.90;;;;;;7581200;19;20022;-77
2022/11/22 08:02:22;;;;;;;50.60;15.45;;;5.80;99.90;;;;;;7584641;19;20054;-78
2022/11/22 08:04:54;;;;;;;25.52;8.63;;;5.80;99.90;;;;;;7570577;19;20021;-77
2022/11/22 08:07:26;;;;;;;13.45;4.15;;;5.90;99.90;;;;;;7598181;19;20014;-78
2022/11/22 08:09:59;;;;;;;13.32;5.47;;;5.80;99.90;;;;;;7579841;19;20014;-78
2022/11/22 08:12:31;;;;;;;13.57;6.13;;;5.80;99.90;;;;;;7566905;19;20043;-77
2022/11/22 08:15:03;;;;;;;14.25;5.03;;;5.80;99.90;;;;;;7593792;19;20010;-78
2022/11/22 08:17:35;;;;;;;16.67;5.25;;;5.80;99.90;;;;;;7583447;19;20014;-78
2022/11/22 08:20:08;;;;;;;19.98;7.28;;;5.90;99.90;;;;;;7586012;19;20060;-78
2022/11/22 08:22:41;;;;;;;15.10;6.73;;;5.90;99.90;;;;;;7588972;19;20742;-77
2022/11/22 08:25:13;;;;;;;16.48;7.10;;;5.90;99.90;;;;;;7615993;19;20263;-78
2022/11/22 08:27:45;;;;;;;15.27;7.65;;;5.90;99.90;;;;;;7623919;19;20025;-75
2022/11/22 08:30:17;;;;;;;16.40;6.65;;;5.90;99.90;;;;;;7604782;19;20030;-78
2022/11/22 08:32:50;;;;;;;14.25;6.53;;;5.90;99.90;;;;;;7617745;19;20374;-76
2022/11/22 08:35:22;;;;;;;15.10;6.35;;;5.90;99.90;;;;;;7619686;19;20021;-77
2022/11/22 08:37:57;;;;;;;15.25;5.95;;;6.00;99.90;;;;;;7619476;19;20014;-76
2022/11/22 08:40:29;;;;;;;13.52;4.72;;;6.00;99.90;;;;;;7616854;19;20018;-77
2022/11/22 08:43:01;;;;;;;13.27;5.55;;;6.10;99.90;;;;;;7624305;19;20486;-76
2022/11/22 08:45:33;;;;;;;18.65;7.72;;;6.10;99.90;;;;;;7623438;19;20010;-77
2022/11/22 08:48:05;;;;;;;15.15;7.03;;;6.10;99.90;;;;;;7623177;19;20888;-77
2022/11/22 08:50:37;;;;;;;23.83;8.15;;;6.10;99.90;;;;;;7621081;19;20037;-77
2022/11/22 08:53:09;;;;;;;17.73;7.93;;;6.10;99.90;;;;;;7612218;19;21026;-75
2022/11/22 08:55:41;;;;;;;17.25;7.85;;;6.10;99.90;;;;;;7621718;19;20022;-76
2022/11/22 08:58:14;;;;;;;16.35;7.75;;;6.10;99.90;;;;;;7621971;19;20542;-78
2022/11/22 09:00:46;;;;;;;23.45;7.85;;;6.10;99.90;;;;;;7616908;19;20022;-77
2022/11/22 09:03:18;;;;;;;15.13;5.78;;;6.20;99.90;;;;;;7627023;19;20010;-77
2022/11/22 09:05:50;;;;;;;13.57;4.90;;;6.20;99.90;;;;;;7626214;19;20014;-77
2022/11/22 09:08:42;;;;;;;16.02;4.40;;;6.20;99.90;;;;;;7582523;19;20013;-77
2022/11/22 09:11:24;;;;;;;12.63;3.20;;;6.20;99.90;;;;;;7622149;19;20037;-77
2022/11/22 09:13:56;;;;;;;15.43;3.78;;;6.10;99.90;;;;;;7614036;19;20538;-76
2022/11/22 09:16:28;;;;;;;12.18;4.32;;;6.00;99.90;;;;;;7620289;19;20011;-77
2022/11/22 09:19:00;;;;;;;13.10;4.32;;;6.00;99.90;;;;;;7619692;19;20015;-76
2022/11/22 09:21:32;;;;;;;16.42;4.10;;;6.00;99.90;;;;;;7618582;19;20467;-77
2022/11/22 09:24:05;;;;;;;14.43;4.80;;;6.00;99.90;;;;;;7619352;19;20028;-77
2022/11/22 09:26:37;;;;;;;21.30;4.80;;;6.00;99.90;;;;;;7579323;19;20014;-76
2022/11/22 09:29:09;;;;;;;14.07;4.32;;;6.00;99.90;;;;;;7547283;19;21412;-75
2022/11/22 09:31:42;;;;;;;16.52;4.28;;;6.10;99.90;;;;;;7596403;19;20015;-78
2022/11/22 09:34:14;;;;;;;13.97;3.93;;;6.10;99.90;;;;;;7624643;19;20014;-78
2022/11/22 09:36:46;;;;;;;14.02;3.88;;;6.20;99.90;;;;;;7568835;19;20444;-75
2022/11/22 09:39:18;;;;;;;11.00;3.30;;;6.20;99.90;;;;;;7572698;19;20030;-78
2022/11/22 09:42:09;;;;;;;15.27;3.50;;;6.10;99.90;;;;;;7614401;19;20015;-77
2022/11/22 09:45:15;;;;;;;13.45;3.60;;;6.20;99.90;;;;;;7622805;19;20323;-75
2022/11/22 09:48:08;;;;;;;16.00;4.03;;;6.20;99.90;;;;;;7591844;19;20023;-77
2022/11/22 09:50:59;;;;;;;17.35;3.65;;;6.30;99.90;;;;;;6573738;19;10000291;-75
2022/11/22 09:54:04;;;;;;;16.55;5.53;;;6.30;99.90;;;;;;7604196;19;20029;-78
2022/11/22 09:56:37;;;;;;;17.98;6.40;;;6.30;99.90;;;;;;7606006;19;20043;-79
2022/11/22 09:59:21;;;;;;;17.58;5.30;;;6.30;99.90;;;;;;7583996;19;20019;-75
2022/11/22 10:02:11;;;;;;;19.60;6.70;;;6.30;99.90;;;;;;7601888;19;20030;-78
2022/11/22 10:04:59;;;;;;;20.40;6.45;;;6.40;99.90;;;;;;7580143;19;20011;-76
2022/11/22 10:07:39;;;;;;;17.00;5.40;;;6.40;99.90;;;;;;7586719;19;20466;-75
2022/11/22 10:10:23;;;;;;;18.73;6.97;;;6.40;99.90;;;;;;7577593;19;20023;-78
2022/11/22 10:13:09;;;;;;;;;;;6.40;99.90;;;;;;7577611;19;20022;-78
2022/11/22 10:16:10;;;;;;;10.70;3.55;;;6.50;99.90;;;;;;7587367;19;19915;-78
2022/11/22 10:18:53;;;;;;;14.27;3.97;;;6.30;99.90;;;;;;7617121;19;20787;-78
2022/11/22 10:21:25;;;;;;;14.35;4.10;;;6.20;99.90;;;;;;7581569;19;20686;-77
2022/11/22 10:23:58;;;;;;;12.52;3.70;;;6.30;99.90;;;;;;7579949;19;20011;-76
2022/11/22 10:26:32;;;;;;;8.18;3.35;;;6.30;99.90;;;;;;7572080;19;20498;-78
2022/11/22 10:29:10;;;;;;;12.65;3.80;;;6.20;99.90;;;;;;7594254;19;20023;-78
2022/11/22 10:31:42;;;;;;;18.15;3.80;;;6.10;99.90;;;;;;7596724;19;20022;-78
2022/11/22 10:34:17;;;;;;;14.98;3.67;;;6.10;99.90;;;;;;7622099;19;21034;-77
2022/11/22 10:37:02;;;;;;;5.95;3.03;;;6.10;99.90;;;;;;7626033;19;20018;-78
2022/11/22 10:39:45;;;;;;;17.33;3.22;;;6.00;99.90;;;;;;7624556;19;20038;-78
2022/11/22 10:42:54;;;;;;;7.57;3.85;;;6.10;99.90;;;;;;7603089;19;20900;-78
2022/11/22 10:45:46;;;;;;;10.80;3.88;;;6.00;99.90;;;;;;7596504;19;20011;-78
2022/11/22 10:48:47;;;;;;;16.08;4.32;;;6.10;99.90;;;;;;7600943;19;20006;-76
2022/11/22 10:51:31;;;;;;;14.18;3.78;;;6.00;99.90;;;;;;7585790;19;20026;-75
2022/11/22 10:54:12;;;;;;;11.27;2.78;;;6.00;99.90;;;;;;7594351;19;20015;-77
2022/11/22 10:56:51;;;;;;;13.50;3.47;;;6.00;99.90;;;;;;7620163;19;20036;-76
2022/11/22 10:59:35;;;;;;;18.15;4.32;;;6.00;99.90;;;;;;7104652;19;10000276;-79
2022/11/22 11:02:19;;;;;;;16.55;4.43;;;6.10;99.90;;;;;;7608878;19;20028;-76
2022/11/22 11:04:52;;;;;;;;;;;6.10;99.90;;;;;;7607357;19;20093;-78
2022/11/22 11:07:26;;;;;;;13.63;4.60;;;6.20;99.90;;;;;;7612647;19;19931;-77
2022/11/22 11:10:03;;;;;;;13.05;3.63;;;6.30;99.90;;;;;;7621682;19;20271;-78
2022/11/22 11:12:57;;;;;;;14.65;5.03;;;6.30;99.90;;;;;;7610829;19;20014;-78
2022/11/22 11:15:34;;;;;;;5.47;2.63;;;6.20;99.90;;;;;;7624313;19;21080;-78
2022/11/22 11:18:20;;;;;;;6.57;2.10;;;6.30;99.90;;;;;;7623238;19;20052;-76
2022/11/22 11:20:52;;;;;;;10.40;2.35;;;6.50;99.90;;;;;;7622615;19;20018;-78
2022/11/22 11:23:24;;;;;;;11.45;3.35;;;6.30;99.90;;;;;;7618879;19;20989;-78
2022/11/22 11:26:25;;;;;;;8.02;2.90;;;6.30;99.90;;;;;;7621368;19;20022;-78
2022/11/22 11:29:23;;;;;;;9.90;3.53;;;6.40;99.90;;;;;;7628941;19;20018;-77
2022/11/22 11:32:08;;;;;;;13.45;4.60;;;6.30;99.90;;;;;;7590439;19;20756;-76
2022/11/22 11:34:51;;;;;;;15.07;4.90;;;6.30;99.90;;;;;;7575842;19;20018;-78
2022/11/22 11:37:30;;;;;;;7.18;3.72;;;6.30;99.90;;;;;;7564299;19;20620;-76
2022/11/22 11:40:05;;;;;;;13.00;3.40;;;6.30;99.90;;;;;;7552999;19;20047;-77
2022/11/22 11:42:37;;;;;;;10.98;3.10;;;6.20;99.90;;;;;;7581560;19;21224;-77
2022/11/22 11:45:18;;;;;;;11.32;3.58;;;6.20;99.90;;;;;;7574895;19;20018;-78
2022/11/22 11:47:50;;;;;;;7.47;2.92;;;6.00;99.90;;;;;;7582939;19;20019;-77
2022/11/22 11:50:25;;;;;;;5.95;2.50;;;6.00;99.90;;;;;;7579599;19;20023;-78
2022/11/22 11:53:04;;;;;;;5.07;2.05;;;6.00;99.90;;;;;;7568899;19;20746;-77
2022/11/22 11:55:36;;;;;;;8.23;2.28;;;6.00;99.90;;;;;;7602943;19;20546;-77
2022/11/22 11:58:22;;;;;;;7.78;2.83;;;5.90;99.90;;;;;;7611248;19;20006;-77
2022/11/22 12:00:56;;;;;;;9.35;3.03;;;5.90;99.90;;;;;;7601578;19;20029;-76
2022/11/22 12:03:28;;;;;;;7.90;2.67;;;5.90;99.90;;;;;;7562222;19;20018;-77
2022/11/22 12:06:11;;;;;;;9.70;4.32;;;5.90;99.90;;;;;;7566217;19;20021;-75
2022/11/22 12:08:43;;;;;;;12.23;5.35;;;5.80;99.90;;;;;;7561459;19;20123;-76
2022/11/22 12:11:22;;;;;;;15.45;3.85;;;5.80;99.90;;;;;;7580221;19;20031;-76
2022/11/22 12:13:59;;;;;;;14.40;4.68;;;5.80;99.90;;;;;;7557612;19;20021;-74
2022/11/22 12:16:56;;;;;;;13.23;3.58;;;5.70;99.90;;;;;;7582877;19;20034;-77
2022/11/22 12:19:49;;;;;;;19.73;4.40;;;5.60;99.90;;;;;;7556223;19;20014;-76
2022/11/22 12:22:38;;;;;;;14.88;5.00;;;5.60;99.90;;;;;;7551719;19;20228;-76
2022/11/22 12:25:34;;;;;;;11.65;2.78;;;5.50;99.90;;;;;;7557075;19;20729;-76
2022/11/22 12:28:18;;;;;;;6.97;3.40;;;5.60;99.90;;;;;;7553136;19;20021;-77
2022/11/22 12:30:55;;;;;;;13.85;4.07;;;5.60;99.90;;;;;;7580164;19;20014;-76
2022/11/22 12:33:38;;;;;;;16.73;5.68;;;5.60;99.90;;;;;;7550765;19;20011;-77
2022/11/22 12:36:26;;;;;;;16.23;5.17;;;5.50;99.90;;;;;;7546625;19;20489;-74
2022/11/22 12:39:07;;;;;;;11.57;4.40;;;5.60;99.90;;;;;;7527685;19;20023;-76
2022/11/22 12:41:41;;;;;;;5.35;2.13;;;5.60;99.90;;;;;;7518479;19;20102;-76
2022/11/22 12:44:17;;;;;;;10.32;2.65;;;5.70;99.90;;;;;;7536455;19;20112;-75
2022/11/22 12:46:59;;;;;;;10.30;2.47;;;5.60;99.90;;;;;;7513621;19;20576;-77
2022/11/22 12:49:48;;;;;;;8.50;2.50;;;5.70;99.90;;;;;;7533760;19;20018;-76
2022/11/22 12:52:33;;;;;;;10.23;2.88;;;5.70;99.90;;;;;;7570011;19;20107;-74
2022/11/22 12:55:25;;;;;;;9.50;2.95;;;5.70;99.90;;;;;;7588759;19;20018;-77
2022/11/22 12:58:03;;;;;;;10.25;3.10;;;5.80;99.90;;;;;;7599266;19;20400;-76
2022/11/22 13:01:02;;;;;;;9.57;3.03;;;5.70;99.90;;;;;;6553086;19;10000226;-76
2022/11/22 13:03:54;;;;;;;8.73;3.53;;;5.80;99.90;;;;;;7606615;19;20489;-77
2022/11/22 13:07:00;;;;;;;4.15;2.75;;;5.80;99.90;;;;;;7607656;19;20011;-76
2022/11/22 13:09:40;;;;;;;11.13;3.45;;;5.80;99.90;;;;;;7619652;19;20821;-77
2022/11/22 13:12:16;;;;;;;6.85;3.05;;;5.80;99.90;;;;;;7628053;19;20029;-77
2022/11/22 13:14:53;;;;;;;11.70;4.20;;;5.90;99.90;;;;;;7627456;19;20234;-76
2022/11/22 13:17:34;;;;;;;8.35;4.00;;;5.80;99.90;;;;;;7631898;19;20541;-76
2022/11/22 13:20:17;;;;;;;8.65;3.20;;;5.80;99.90;;;;;;7629894;19;20018;-77
2022/11/22 13:23:23;;;;;;;9.50;2.70;;;5.80;99.90;;;;;;7628798;19;20371;-76
2022/11/22 13:26:11;;;;;;;10.00;2.88;;;5.80;99.90;;;;;;7623309;19;20630;-76
2022/11/22 13:28:47;;;;;;;15.07;3.50;;;5.80;99.90;;;;;;7639251;19;20029;-76
2022/11/22 13:31:19;;;;;;;9.45;2.80;;;5.70;99.90;;;;;;7625065;19;20025;-76
2022/11/22 13:33:55;;;;;;;12.05;3.50;;;5.80;99.90;;;;;;7630682;19;20030;-75
2022/11/22 13:36:30;;;;;;;10.00;3.30;;;5.80;99.90;;;;;;7628033;19;20022;-73
2022/11/22 13:39:08;;;;;;;13.48;3.40;;;5.90;99.90;;;;;;7605465;19;20014;-72
2022/11/22 13:41:56;;;;;;;9.30;3.65;;;5.90;99.90;;;;;;7577648;19;20007;-71
2022/11/22 13:44:31;;;;;;;8.23;3.10;;;6.00;99.90;;;;;;7609803;19;20020;-72
2022/11/22 13:47:32;;;;;;;8.27;3.42;;;6.10;99.90;;;;;;7626621;19;20018;-72
2022/11/22 13:50:39;;;;;;;7.05;2.97;;;6.10;99.90;;;;;;7601014;19;20014;-72
2022/11/22 13:53:46;;;;;;;10.63;4.25;;;6.10;99.90;;;;;;7597700;19;20022;-74
2022/11/22 13:56:21;;;;;;;19.80;4.50;;;6.10;99.90;;;;;;7580629;19;20010;-73